Time;durP1;ratioP1;P1;durP2;ratioP2;P2;SDS_P1;SDS_P2;PMS_P1;PMS_P2;Temp;Humidity;BMP_temperature;BMP_pressure;BME280_temperature;BME280_humidity;BME280_pressure;Samples;Min_cycle;Max_cycle;Signal;HPM_P1;HPM_P2
2022/03/17 00:01:26;;;;;;;45.55;30.15;;;;;;;;;;5095506;28;20478;-65
2022/03/17 00:03:52;;;;;;;48.75;30.60;;;;;;;;;;5077305;28;20035;-64
2022/03/17 00:06:18;;;;;;;48.22;30.83;;;;;;;;;;5077332;28;20028;-63
2022/03/17 00:08:44;;;;;;;52.03;31.02;;;;;;;;;;5094873;28;20080;-63
2022/03/17 00:11:11;;;;;;;45.20;29.95;;;;;;;;;;5094813;28;20043;-64
2022/03/17 00:13:37;;;;;;;48.15;32.00;;;;;;;;;;5095301;28;20028;-64
2022/03/17 00:16:04;;;;;;;52.45;33.50;;;;;;;;;;5077129;28;20089;-64
2022/03/17 00:18:30;;;;;;;49.95;31.27;;;;;;;;;;5095127;28;20035;-64
2022/03/17 00:20:56;;;;;;;51.67;32.28;;;;;;;;;;5077044;28;20032;-64
2022/03/17 00:23:23;;;;;;;52.80;32.95;;;;;;;;;;5095397;28;20106;-64
2022/03/17 00:25:49;;;;;;;53.58;32.92;;;;;;;;;;5095415;28;20031;-63
2022/03/17 00:28:15;;;;;;;50.67;32.63;;;;;;;;;;5076833;28;20032;-64
2022/03/17 00:30:41;;;;;;;46.63;31.27;;;;;;;;;;5094957;28;20593;-63
2022/03/17 00:33:08;;;;;;;52.63;32.67;;;;;;;;;;5094956;28;20030;-64
2022/03/17 00:35:38;;;;;;;53.08;32.60;;;;;;;;;;5094873;28;20080;-64
2022/03/17 00:38:07;;;;;;;52.33;32.83;;;;;;;;;;5094843;28;20035;-63
2022/03/17 00:40:35;;;;;;;54.63;34.22;;;;;;;;;;5076670;28;20063;-65
2022/03/17 00:43:02;;;;;;;52.53;33.22;;;;;;;;;;5094725;28;20376;-64
2022/03/17 00:45:29;;;;;;;47.85;31.30;;;;;;;;;;5094645;28;20418;-65
2022/03/17 00:47:55;;;;;;;48.63;31.98;;;;;;;;;;5094643;28;20077;-65
2022/03/17 00:50:22;;;;;;;49.72;32.38;;;;;;;;;;5094579;28;20080;-64
2022/03/17 00:52:48;;;;;;;59.22;32.63;;;;;;;;;;5094581;28;20126;-65
2022/03/17 00:55:15;;;;;;;51.70;33.90;;;;;;;;;;5076300;28;20165;-64
2022/03/17 00:57:41;;;;;;;50.05;31.90;;;;;;;;;;5094146;28;20460;-64
2022/03/17 01:00:14;;;;;;;55.08;32.60;;;;;;;;;;5094140;28;20028;-63
2022/03/17 01:02:41;;;;;;;50.72;32.83;;;;;;;;;;5094380;28;20031;-64
2022/03/17 01:05:08;;;;;;;51.10;32.95;;;;;;;;;;5076026;28;20081;-64
2022/03/17 01:07:34;;;;;;;51.95;34.05;;;;;;;;;;5094624;28;20371;-64
2022/03/17 01:10:00;;;;;;;46.47;31.55;;;;;;;;;;5075964;28;20027;-64
2022/03/17 01:12:27;;;;;;;59.30;36.50;;;;;;;;;;5094184;28;20115;-63
2022/03/17 01:14:53;;;;;;;51.45;33.90;;;;;;;;;;5094101;28;20024;-64
2022/03/17 01:17:19;;;;;;;54.67;33.65;;;;;;;;;;5094065;28;20028;-64
2022/03/17 01:19:46;;;;;;;50.70;32.80;;;;;;;;;;5075799;28;20032;-64
2022/03/17 01:22:12;;;;;;;50.25;30.63;;;;;;;;;;5093671;28;20076;-63
2022/03/17 01:24:39;;;;;;;50.50;31.75;;;;;;;;;;5075813;28;20236;-63
2022/03/17 01:27:05;;;;;;;50.40;32.65;;;;;;;;;;5093892;28;20548;-63
2022/03/17 01:29:31;;;;;;;50.47;31.90;;;;;;;;;;5093599;28;20024;-63
2022/03/17 01:31:57;;;;;;;52.50;32.78;;;;;;;;;;5093794;28;20460;-63
2022/03/17 01:34:24;;;;;;;56.55;34.25;;;;;;;;;;5094036;28;20480;-63
2022/03/17 01:36:50;;;;;;;58.33;35.35;;;;;;;;;;5093807;28;20372;-64
2022/03/17 01:39:16;;;;;;;66.25;39.05;;;;;;;;;;5075406;28;20036;-63
2022/03/17 01:41:42;;;;;;;57.53;35.50;;;;;;;;;;5075450;28;20062;-63
2022/03/17 01:44:09;;;;;;;58.17;35.40;;;;;;;;;;5093116;28;20051;-64
2022/03/17 01:47:26;;;;;;;56.72;35.28;;;;;;;;;;5075348;28;20472;-64
2022/03/17 01:49:21;;;;;;;53.42;33.22;;;;;;;;;;5093118;28;20028;-63
2022/03/17 01:51:50;;;;;;;52.08;33.30;;;;;;;;;;5075306;28;20073;-64
2022/03/17 01:54:20;;;;;;;55.47;33.95;;;;;;;;;;5093458;28;20460;-63
2022/03/17 01:56:47;;;;;;;54.13;32.20;;;;;;;;;;5093484;28;20020;-64
2022/03/17 01:59:13;;;;;;;49.22;32.50;;;;;;;;;;5075226;28;20118;-64
2022/03/17 02:01:40;;;;;;;53.22;32.78;;;;;;;;;;5093365;28;20043;-64
2022/03/17 02:04:06;;;;;;;45.25;29.50;;;;;;;;;;5093361;28;20028;-64
2022/03/17 02:06:32;;;;;;;46.95;30.33;;;;;;;;;;5093378;28;20021;-64
2022/03/17 02:08:59;;;;;;;40.72;27.02;;;;;;;;;;5093309;28;20089;-63
2022/03/17 02:14:10;;;;;;;49.55;31.02;;;;;;;;;;5093028;28;20047;-64
2022/03/17 02:16:36;;;;;;;45.92;28.73;;;;;;;;;;5093260;28;20024;-63
2022/03/17 02:19:02;;;;;;;43.22;27.63;;;;;;;;;;5093092;28;20156;-64
2022/03/17 02:21:29;;;;;;;43.90;28.35;;;;;;;;;;5093166;28;20067;-64
2022/03/17 02:26:41;;;;;;;42.60;27.55;;;;;;;;;;5092914;28;20078;-63
2022/03/17 02:29:07;;;;;;;44.60;29.35;;;;;;;;;;5093099;28;20020;-64
2022/03/17 02:31:34;;;;;;;42.33;27.88;;;;;;;;;;5093015;28;20028;-64
2022/03/17 02:34:01;;;;;;;43.70;28.38;;;;;;;;;;5096177;28;20024;-64
2022/03/17 02:36:29;;;;;;;48.17;30.15;;;;;;;;;;5078987;28;20068;-64
2022/03/17 02:38:57;;;;;;;45.65;29.65;;;;;;;;;;5097340;28;20050;-64
2022/03/17 02:41:23;;;;;;;46.38;28.77;;;;;;;;;;5078973;28;20533;-64
2022/03/17 02:43:53;;;;;;;46.17;28.02;;;;;;;;;;5070668;28;20041;-64
2022/03/17 02:46:21;;;;;;;46.55;28.80;;;;;;;;;;5055474;28;20405;-64
2022/03/17 02:48:47;;;;;;;45.63;28.30;;;;;;;;;;5056631;28;20083;-64
2022/03/17 02:51:13;;;;;;;47.47;29.00;;;;;;;;;;5055290;28;20174;-64
2022/03/17 02:53:40;;;;;;;51.53;32.08;;;;;;;;;;5056573;28;20029;-64
2022/03/17 02:56:06;;;;;;;45.53;29.30;;;;;;;;;;5056524;28;20527;-64
2022/03/17 02:58:32;;;;;;;42.92;28.23;;;;;;;;;;5056438;28;20119;-66
2022/03/17 03:00:58;;;;;;;46.05;29.42;;;;;;;;;;5056480;28;20111;-66
2022/03/17 03:03:25;;;;;;;42.30;28.65;;;;;;;;;;5056394;28;20025;-66
2022/03/17 03:05:51;;;;;;;47.15;28.63;;;;;;;;;;5055064;28;20024;-66
2022/03/17 03:08:17;;;;;;;46.75;29.90;;;;;;;;;;5056340;28;20028;-66
2022/03/17 03:10:44;;;;;;;41.53;27.90;;;;;;;;;;5054965;28;20037;-64
2022/03/17 03:13:10;;;;;;;45.42;28.20;;;;;;;;;;5056215;28;20025;-64
2022/03/17 03:15:37;;;;;;;43.25;28.35;;;;;;;;;;5054844;28;20072;-65
2022/03/17 03:18:03;;;;;;;45.50;28.88;;;;;;;;;;5054805;28;20044;-64
2022/03/17 03:20:30;;;;;;;42.50;28.02;;;;;;;;;;5056095;28;20498;-64
2022/03/17 03:22:57;;;;;;;44.30;28.70;;;;;;;;;;5056060;28;20029;-64
2022/03/17 03:25:23;;;;;;;44.85;28.60;;;;;;;;;;5055968;28;20159;-64
2022/03/17 03:27:49;;;;;;;46.28;28.60;;;;;;;;;;5055968;28;20444;-64
2022/03/17 03:30:16;;;;;;;45.42;27.80;;;;;;;;;;5054589;28;20021;-64
2022/03/17 03:32:45;;;;;;;44.28;27.70;;;;;;;;;;5054593;28;20461;-64
2022/03/17 03:37:57;;;;;;;46.85;27.95;;;;;;;;;;5055554;28;20036;-64
2022/03/17 03:40:23;;;;;;;45.20;28.60;;;;;;;;;;5054408;28;20032;-64
2022/03/17 03:42:49;;;;;;;42.05;27.67;;;;;;;;;;5054095;28;20025;-64
2022/03/17 03:45:16;;;;;;;48.45;30.25;;;;;;;;;;5087587;28;20131;-64
2022/03/17 03:47:42;;;;;;;42.92;27.73;;;;;;;;;;5077763;28;20478;-64
2022/03/17 03:50:09;;;;;;;43.58;29.15;;;;;;;;;;5077665;28;20115;-64
2022/03/17 03:52:35;;;;;;;54.63;32.20;;;;;;;;;;5077566;28;20115;-64
2022/03/17 03:55:01;;;;;;;52.80;29.80;;;;;;;;;;5077574;28;20036;-65
2022/03/17 03:57:28;;;;;;;55.45;31.02;;;;;;;;;;5095601;28;20032;-64
2022/03/17 03:59:54;;;;;;;45.20;30.50;;;;;;;;;;5095330;28;20127;-65
2022/03/17 04:02:20;;;;;;;52.20;32.40;;;;;;;;;;5095541;28;20028;-65
2022/03/17 04:04:46;;;;;;;48.53;29.83;;;;;;;;;;5095179;28;20379;-65
2022/03/17 04:07:13;;;;;;;49.10;31.92;;;;;;;;;;5095497;28;20089;-64
2022/03/17 04:09:41;;;;;;;54.42;31.40;;;;;;;;;;5095422;28;20440;-65
2022/03/17 04:12:08;;;;;;;48.75;31.33;;;;;;;;;;5077169;28;20028;-65
2022/03/17 04:14:34;;;;;;;55.40;32.67;;;;;;;;;;5077189;28;20149;-64
2022/03/17 04:17:00;;;;;;;48.78;30.17;;;;;;;;;;5095200;28;20032;-65
2022/03/17 04:19:28;;;;;;;48.88;29.83;;;;;;;;;;5095455;28;20456;-65
2022/03/17 04:21:54;;;;;;;55.28;34.53;;;;;;;;;;5095159;28;20024;-65
2022/03/17 04:24:21;;;;;;;57.92;34.88;;;;;;;;;;5095112;28;20020;-64
2022/03/17 04:26:48;;;;;;;60.95;33.17;;;;;;;;;;5095081;28;20073;-64
2022/03/17 04:29:14;;;;;;;52.67;31.70;;;;;;;;;;5095074;28;20073;-64
2022/03/17 04:31:41;;;;;;;67.03;37.08;;;;;;;;;;5076842;28;20402;-64
2022/03/17 04:34:08;;;;;;;63.53;34.42;;;;;;;;;;5095168;28;20035;-64
2022/03/17 04:36:34;;;;;;;50.83;32.00;;;;;;;;;;5094874;28;20025;-64
2022/03/17 04:39:02;;;;;;;51.60;31.35;;;;;;;;;;5076679;28;20032;-64
2022/03/17 04:41:28;;;;;;;50.83;32.75;;;;;;;;;;5094767;28;20069;-64
2022/03/17 04:43:55;;;;;;;50.55;30.38;;;;;;;;;;5094789;28;20047;-64
2022/03/17 04:46:21;;;;;;;51.53;31.88;;;;;;;;;;5076557;28;20376;-63
2022/03/17 04:48:48;;;;;;;58.45;34.50;;;;;;;;;;5094676;28;20031;-63
2022/03/17 04:51:14;;;;;;;58.72;34.08;;;;;;;;;;5094572;28;20028;-64
2022/03/17 04:53:40;;;;;;;57.92;34.85;;;;;;;;;;5094544;28;20185;-64
2022/03/17 04:56:09;;;;;;;60.88;35.85;;;;;;;;;;5075636;28;20468;-64
2022/03/17 04:58:36;;;;;;;59.20;35.60;;;;;;;;;;5094420;28;20119;-63
2022/03/17 05:01:03;;;;;;;62.42;36.60;;;;;;;;;;5094220;28;20050;-64
2022/03/17 05:03:29;;;;;;;55.53;34.13;;;;;;;;;;5094365;28;20111;-64
2022/03/17 05:05:56;;;;;;;59.22;34.47;;;;;;;;;;5093995;28;20384;-64
2022/03/17 05:08:22;;;;;;;56.45;33.60;;;;;;;;;;5094328;28;20414;-64
2022/03/17 05:10:49;;;;;;;56.80;34.58;;;;;;;;;;5076022;28;20119;-64
2022/03/17 05:13:19;;;;;;;58.35;34.55;;;;;;;;;;5093929;28;20404;-64
2022/03/17 05:15:46;;;;;;;59.30;33.85;;;;;;;;;;5094167;28;20525;-64
2022/03/17 05:18:13;;;;;;;60.33;36.50;;;;;;;;;;5094033;28;20036;-63
2022/03/17 05:20:40;;;;;;;69.72;38.95;;;;;;;;;;5075880;28;20031;-64
2022/03/17 05:23:08;;;;;;;61.30;34.97;;;;;;;;;;5093999;28;20032;-64
2022/03/17 05:25:35;;;;;;;60.35;35.22;;;;;;;;;;5093942;28;20032;-63
2022/03/17 05:28:01;;;;;;;61.88;34.92;;;;;;;;;;5093966;28;20040;-64
2022/03/17 05:30:28;;;;;;;59.45;34.50;;;;;;;;;;5075592;28;20111;-64
2022/03/17 05:32:55;;;;;;;66.10;37.30;;;;;;;;;;5093770;28;20031;-63
2022/03/17 05:35:21;;;;;;;64.40;35.22;;;;;;;;;;5075607;28;20108;-64
2022/03/17 05:37:48;;;;;;;54.80;33.47;;;;;;;;;;5093389;28;20035;-64
2022/03/17 05:40:16;;;;;;;60.58;36.15;;;;;;;;;;5093664;28;20071;-64
2022/03/17 05:42:43;;;;;;;58.60;36.17;;;;;;;;;;5093525;28;20410;-64
2022/03/17 05:45:11;;;;;;;59.35;35.85;;;;;;;;;;5093639;28;20044;-64
2022/03/17 05:47:38;;;;;;;72.93;41.92;;;;;;;;;;5075411;28;20035;-64
2022/03/17 05:50:05;;;;;;;62.72;38.35;;;;;;;;;;5093657;28;20494;-64
2022/03/17 05:52:34;;;;;;;59.42;35.65;;;;;;;;;;5093449;28;20107;-64
2022/03/17 05:55:00;;;;;;;63.17;36.78;;;;;;;;;;5093418;28;20548;-64
2022/03/17 05:57:27;;;;;;;57.13;34.15;;;;;;;;;;5075177;28;20028;-64
2022/03/17 05:59:53;;;;;;;59.53;36.15;;;;;;;;;;5093338;28;20040;-64
2022/03/17 06:02:19;;;;;;;61.95;34.70;;;;;;;;;;5093386;28;20016;-64
2022/03/17 06:04:46;;;;;;;57.95;34.63;;;;;;;;;;5093295;28;20024;-64
2022/03/17 06:07:12;;;;;;;65.53;36.03;;;;;;;;;;5092306;28;20459;-64
2022/03/17 06:09:38;;;;;;;67.55;35.55;;;;;;;;;;5075090;28;20103;-64
2022/03/17 06:12:05;;;;;;;61.30;35.58;;;;;;;;;;5093179;28;20452;-64
2022/03/17 06:14:32;;;;;;;65.03;35.97;;;;;;;;;;5093149;28;20080;-64
2022/03/17 06:16:58;;;;;;;65.75;37.15;;;;;;;;;;5093140;28;20024;-64
2022/03/17 06:19:25;;;;;;;63.63;34.78;;;;;;;;;;5093097;28;20028;-64
2022/03/17 06:21:51;;;;;;;65.55;34.63;;;;;;;;;;5093000;28;20031;-64
2022/03/17 06:24:17;;;;;;;66.10;35.60;;;;;;;;;;5092920;28;20027;-64
2022/03/17 06:26:44;;;;;;;61.15;34.83;;;;;;;;;;5093001;28;20040;-64
2022/03/17 06:29:10;;;;;;;80.50;39.85;;;;;;;;;;5074609;28;20043;-64
2022/03/17 06:31:37;;;;;;;66.75;39.15;;;;;;;;;;5074825;28;20031;-64
2022/03/17 06:34:04;;;;;;;65.90;38.67;;;;;;;;;;5092961;28;20031;-64
2022/03/17 06:36:30;;;;;;;63.78;38.30;;;;;;;;;;5074899;28;20028;-64
2022/03/17 06:38:56;;;;;;;71.72;41.40;;;;;;;;;;5074748;28;20028;-63
2022/03/17 06:41:22;;;;;;;68.38;40.40;;;;;;;;;;5074312;28;20028;-64
2022/03/17 06:43:48;;;;;;;74.65;40.17;;;;;;;;;;5092554;28;20052;-64
2022/03/17 06:46:14;;;;;;;66.97;38.28;;;;;;;;;;5092395;28;20103;-64
2022/03/17 06:48:41;;;;;;;66.78;38.83;;;;;;;;;;5092928;28;20082;-64
2022/03/17 06:51:07;;;;;;;64.45;37.40;;;;;;;;;;5092716;28;20024;-64
2022/03/17 06:53:33;;;;;;;64.05;38.03;;;;;;;;;;5092598;28;20020;-64
2022/03/17 06:55:59;;;;;;;69.28;37.90;;;;;;;;;;5092372;28;20024;-65
2022/03/17 06:58:26;;;;;;;69.10;38.97;;;;;;;;;;5092798;28;20028;-63
2022/03/17 07:00:52;;;;;;;68.40;39.78;;;;;;;;;;5074473;28;20040;-65
2022/03/17 07:03:18;;;;;;;66.85;38.88;;;;;;;;;;5091434;28;20111;-63
2022/03/17 07:05:44;;;;;;;71.35;39.60;;;;;;;;;;5090919;28;20028;-63
2022/03/17 07:08:10;;;;;;;63.03;38.42;;;;;;;;;;5092059;28;20030;-63
2022/03/17 07:10:37;;;;;;;67.63;39.03;;;;;;;;;;5092034;28;20110;-63
2022/03/17 07:13:03;;;;;;;65.18;39.17;;;;;;;;;;5092219;28;20063;-63
2022/03/17 07:15:29;;;;;;;71.32;39.83;;;;;;;;;;5092270;28;20082;-63
2022/03/17 07:17:55;;;;;;;70.10;43.03;;;;;;;;;;5074358;28;20036;-63
2022/03/17 07:20:23;;;;;;;64.25;38.08;;;;;;;;;;5077645;28;20085;-63
2022/03/17 07:22:50;;;;;;;80.45;39.15;;;;;;;;;;5096234;28;20024;-63
2022/03/17 07:25:21;;;;;;;68.82;37.08;;;;;;;;;;5077680;28;20028;-63
2022/03/17 07:27:48;;;;;;;67.50;39.03;;;;;;;;;;5078045;28;20501;-63
2022/03/17 07:30:18;;;;;;;70.82;41.95;;;;;;;;;;5095914;28;20031;-63
2022/03/17 07:32:46;;;;;;;71.82;40.05;;;;;;;;;;5096019;28;20042;-63
2022/03/17 07:35:12;;;;;;;64.85;38.03;;;;;;;;;;5077800;28;20123;-63
2022/03/17 07:37:39;;;;;;;77.35;41.70;;;;;;;;;;5077879;28;20089;-63
2022/03/17 07:40:06;;;;;;;59.88;35.95;;;;;;;;;;5095703;28;20043;-63
2022/03/17 07:42:32;;;;;;;62.58;36.50;;;;;;;;;;5077705;28;20036;-63
2022/03/17 07:44:58;;;;;;;63.50;36.00;;;;;;;;;;5095506;28;20403;-63
2022/03/17 07:47:24;;;;;;;56.80;32.17;;;;;;;;;;5095758;28;20028;-63
2022/03/17 07:49:52;;;;;;;55.22;32.28;;;;;;;;;;5095820;28;20053;-63
2022/03/17 07:52:18;;;;;;;60.05;31.10;;;;;;;;;;5095661;28;20024;-63
2022/03/17 07:54:47;;;;;;;53.13;31.50;;;;;;;;;;5095712;28;20032;-63
2022/03/17 07:57:14;;;;;;;52.70;31.42;;;;;;;;;;5095789;28;20032;-64
2022/03/17 07:59:41;;;;;;;55.55;31.17;;;;;;;;;;5095708;28;20064;-63
2022/03/17 08:02:07;;;;;;;47.13;29.42;;;;;;;;;;5095585;28;20498;-63
2022/03/17 08:04:34;;;;;;;50.40;29.77;;;;;;;;;;5077309;28;20455;-63
2022/03/17 08:07:01;;;;;;;50.22;30.63;;;;;;;;;;5095486;28;20087;-63
2022/03/17 08:09:30;;;;;;;52.58;31.10;;;;;;;;;;5095357;28;20028;-63
2022/03/17 08:11:59;;;;;;;70.85;39.08;;;;;;;;;;5095294;28;20032;-63
2022/03/17 08:14:25;;;;;;;60.80;36.22;;;;;;;;;;5077054;28;20077;-63
2022/03/17 08:16:51;;;;;;;59.75;32.88;;;;;;;;;;5095162;28;20034;-63
2022/03/17 08:19:17;;;;;;;55.42;32.78;;;;;;;;;;5093579;28;20035;-64
2022/03/17 08:21:44;;;;;;;57.97;33.97;;;;;;;;;;5094302;28;20067;-65
2022/03/17 08:24:10;;;;;;;56.03;35.08;;;;;;;;;;5094931;28;20016;-66
2022/03/17 08:26:37;;;;;;;65.63;35.83;;;;;;;;;;5094925;28;20020;-67
2022/03/17 08:29:04;;;;;;;59.63;34.33;;;;;;;;;;5094811;28;20028;-67
2022/03/17 08:31:31;;;;;;;61.25;35.45;;;;;;;;;;5093576;28;20020;-66
2022/03/17 08:33:57;;;;;;;62.08;34.25;;;;;;;;;;5094615;28;20046;-67
2022/03/17 08:36:24;;;;;;;60.45;34.80;;;;;;;;;;5094520;28;20384;-70
2022/03/17 08:38:54;;;;;;;67.53;35.70;;;;;;;;;;5076310;28;20024;-68
2022/03/17 08:41:20;;;;;;;68.13;36.72;;;;;;;;;;5094844;28;20031;-66
2022/03/17 08:43:47;;;;;;;75.25;37.67;;;;;;;;;;5094139;28;20060;-66
2022/03/17 08:51:42;;;;;;;70.00;39.08;;;;;;;;;;5094173;28;20542;-68
2022/03/17 08:54:10;;;;;;;72.40;36.78;;;;;;;;;;5094430;28;20468;-65
2022/03/17 08:56:36;;;;;;;63.42;35.88;;;;;;;;;;5094327;28;20086;-65
2022/03/17 08:59:03;;;;;;;68.82;37.03;;;;;;;;;;5094153;28;20028;-66
2022/03/17 09:01:29;;;;;;;68.43;36.22;;;;;;;;;;5094476;28;20024;-64
2022/03/17 09:03:55;;;;;;;68.65;36.83;;;;;;;;;;5075971;28;20379;-65
2022/03/17 09:06:22;;;;;;;61.25;33.53;;;;;;;;;;5075904;28;20067;-65
2022/03/17 09:08:49;;;;;;;64.10;36.08;;;;;;;;;;5075874;28;20068;-66
2022/03/17 09:11:15;;;;;;;64.38;35.42;;;;;;;;;;5093918;28;20024;-65
2022/03/17 09:13:41;;;;;;;64.15;36.78;;;;;;;;;;5075665;28;20380;-65
2022/03/17 09:16:08;;;;;;;69.10;37.17;;;;;;;;;;5093810;28;20376;-69
2022/03/17 09:18:35;;;;;;;74.45;37.92;;;;;;;;;;5093732;28;20030;-68
2022/03/17 09:21:01;;;;;;;67.50;36.35;;;;;;;;;;5075778;28;20028;-67
2022/03/17 09:23:29;;;;;;;67.75;37.30;;;;;;;;;;5075539;28;20105;-68
2022/03/17 09:25:55;;;;;;;65.18;34.53;;;;;;;;;;5075527;28;20020;-65
2022/03/17 09:28:22;;;;;;;62.88;35.53;;;;;;;;;;5075470;28;20035;-65
2022/03/17 09:30:50;;;;;;;69.20;35.92;;;;;;;;;;5093753;28;20410;-67
2022/03/17 09:33:17;;;;;;;65.47;36.85;;;;;;;;;;5075255;28;20431;-66
2022/03/17 09:35:43;;;;;;;71.15;36.70;;;;;;;;;;5093619;28;20028;-66
2022/03/17 09:38:10;;;;;;;74.72;36.67;;;;;;;;;;5093785;28;20556;-66
2022/03/17 09:40:38;;;;;;;70.30;35.63;;;;;;;;;;5093568;28;20036;-65
2022/03/17 09:43:39;;;;;;;68.72;33.53;;;;;;;;;;5075035;28;20027;-65
2022/03/17 09:46:04;;;;;;;74.20;37.08;;;;;;;;;;5089818;28;20047;-65
2022/03/17 09:48:30;;;;;;;72.75;34.92;;;;;;;;;;5093510;28;20063;-66
2022/03/17 09:51:00;;;;;;;64.10;34.28;;;;;;;;;;5093479;28;20050;-66
2022/03/17 09:53:26;;;;;;;56.13;30.90;;;;;;;;;;5093282;28;20016;-66
2022/03/17 09:55:53;;;;;;;62.65;32.55;;;;;;;;;;5093330;28;20027;-66
2022/03/17 09:58:19;;;;;;;62.55;33.95;;;;;;;;;;5093065;28;20137;-68
2022/03/17 10:00:48;;;;;;;72.10;40.58;;;;;;;;;;5093259;28;20095;-66
2022/03/17 10:03:18;;;;;;;68.38;37.03;;;;;;;;;;5092856;28;20418;-66
2022/03/17 10:05:45;;;;;;;68.88;36.67;;;;;;;;;;5074968;28;20036;-66
2022/03/17 10:08:12;;;;;;;54.35;28.50;;;;;;;;;;5093148;28;20081;-66
2022/03/17 10:10:39;;;;;;;56.22;29.95;;;;;;;;;;5075008;28;20060;-66
2022/03/17 10:13:06;;;;;;;58.83;30.58;;;;;;;;;;5093068;28;20107;-66
2022/03/17 10:15:32;;;;;;;56.83;29.48;;;;;;;;;;5092749;28;20027;-66
2022/03/17 10:18:00;;;;;;;73.65;44.13;;;;;;;;;;5092942;28;20024;-66
2022/03/17 10:20:27;;;;;;;62.42;36.40;;;;;;;;;;5092972;28;20043;-66
2022/03/17 10:22:57;;;;;;;66.35;35.35;;;;;;;;;;5092614;28;20388;-66
2022/03/17 10:25:25;;;;;;;58.78;32.80;;;;;;;;;;5092879;28;20095;-66
2022/03/17 10:27:54;;;;;;;52.20;28.80;;;13.10;95.30;;;;;;5074847;28;20042;-66
2022/03/17 10:30:33;;;;;;;60.60;33.83;;;;;;;;;;5092610;28;20431;-66
2022/03/17 10:33:13;;;;;;;51.88;29.23;;;;;;;;;;5092971;28;20028;-66
2022/03/17 10:35:45;;;;;;;54.30;28.05;;;;;;;;;;5092880;28;20020;-66
2022/03/17 10:38:14;;;;;;;49.13;27.13;;;;;;;;;;5092845;28;20060;-66
2022/03/17 10:40:41;;;;;;;50.28;28.45;;;13.80;99.90;;;;;;5092824;28;20032;-66
2022/03/17 10:43:17;;;;;;;54.50;28.95;;;13.70;99.90;;;;;;5093034;28;20024;-66
2022/03/17 10:45:43;;;;;;;82.10;32.25;;;13.40;99.90;;;;;;5092226;28;20385;-65
2022/03/17 10:48:09;;;;;;;49.47;27.27;;;;;;;;;;5092802;28;20031;-66
2022/03/17 10:50:40;;;;;;;51.25;28.98;;;;;;;;;;5092769;28;20020;-66
2022/03/17 10:53:06;;;;;;;54.28;27.85;;;;;;;;;;5092650;28;20024;-66
2022/03/17 10:55:34;;;;;;;58.22;32.42;;;;;;;;;;5096651;28;20373;-66
2022/03/17 10:58:17;;;;;;;55.25;30.20;;;;;;;;;;5096500;28;20024;-66
2022/03/17 11:00:53;;;;;;;53.25;28.67;;;;;;;;;;5096659;28;20035;-65
2022/03/17 11:03:20;;;;;;;49.83;27.73;;;;;;;;;;5096535;28;20031;-65
2022/03/17 11:05:50;;;;;;;47.22;28.75;;;;;;;;;;5078285;28;20134;-65
2022/03/17 11:08:17;;;;;;;52.13;27.30;;;;;;;;;;5096489;28;20024;-66
2022/03/17 11:10:43;;;;;;;43.60;25.98;;;;;;;;;;5094087;28;20024;-67
2022/03/17 11:13:11;;;;;;;55.58;34.70;;;;;;;;;;5091426;28;20099;-67
2022/03/17 11:15:41;;;;;;;67.30;41.53;;;;;;;;;;5094629;28;20016;-66
2022/03/17 11:18:13;;;;;;;65.97;41.17;;;;;;;;;;5076650;28;20531;-66
2022/03/17 11:20:39;;;;;;;;;;;;;;;;;;5095400;28;20059;-69
2022/03/17 11:23:06;;;;;;;44.05;26.52;;;;;;;;;;5095726;28;20008;-68
2022/03/17 11:25:34;;;;;;;46.75;26.25;;;;;;;;;;5095245;28;20024;-69
2022/03/17 11:28:01;;;;;;;56.20;26.63;;;;;;;;;;5095453;28;20541;-67
2022/03/17 11:30:45;;;;;;;43.40;24.00;;;13.30;91.00;;;;;;5095560;28;20365;-68
2022/03/17 11:33:35;;;;;;;45.05;24.73;;;13.20;90.90;;;;;;5095651;28;20024;-67
2022/03/17 11:36:19;;;;;;;37.53;22.15;;;13.20;90.60;;;;;;5095763;28;20107;-69
2022/03/17 11:39:08;;;;;;;38.35;22.58;;;13.20;91.00;;;;;;5095681;28;20024;-65
2022/03/17 11:41:41;;;;;;;37.95;22.33;;;13.30;98.40;;;;;;5095592;28;20035;-67
2022/03/17 11:44:07;;;;;;;43.03;23.13;;;13.50;95.60;;;;;;5095457;28;20448;-66
2022/03/17 11:46:41;;;;;;;43.97;25.23;;;13.40;96.30;;;;;;5095237;28;20533;-68
2022/03/17 11:49:20;;;;;;;50.75;29.50;;;13.50;97.30;;;;;;5077148;28;20119;-64
2022/03/17 11:52:03;;;;;;;55.00;30.42;;;13.50;99.90;;;;;;5094063;28;20081;-68
2022/03/17 11:54:31;;;;;;;50.17;29.25;;;13.70;99.80;;;;;;5091821;28;20024;-67
2022/03/17 11:57:06;;;;;;;56.45;32.42;;;13.50;98.50;;;;;;5094194;28;20017;-67
2022/03/17 11:59:51;;;;;;;53.35;30.52;;;13.60;99.90;;;;;;5093815;28;20152;-67
2022/03/17 12:02:18;;;;;;;51.05;27.98;;;;;;;;;;5076434;28;20028;-67
2022/03/17 12:04:50;;;;;;;36.05;22.25;;;13.90;99.90;;;;;;5094946;28;20031;-67
2022/03/17 12:07:18;;;;;;;57.70;36.15;;;14.30;88.10;;;;;;5092936;28;20069;-68
2022/03/17 12:09:45;;;;;;;52.88;30.58;;;14.10;86.00;;;;;;5095058;28;20057;-68
2022/03/17 12:12:24;;;;;;;52.10;30.83;;;13.90;86.90;;;;;;5095053;28;20031;-67
2022/03/17 12:14:55;;;;;;;55.08;33.85;;;13.60;89.90;;;;;;5076739;28;20465;-67
2022/03/17 12:17:26;;;;;;;60.63;36.22;;;13.20;89.00;;;;;;5094669;28;20058;-68
2022/03/17 12:20:14;;;;;;;64.03;35.00;;;13.30;94.40;;;;;;5094479;28;20028;-68
2022/03/17 12:22:44;;;;;;;42.90;27.70;;;;;;;;;;5076698;28;20115;-68
2022/03/17 12:25:23;;;;;;;46.92;28.13;;;;;;;;;;5094774;28;20468;-68
2022/03/17 12:27:58;;;;;;;47.38;28.67;;;;;;;;;;5094494;28;20050;-66
2022/03/17 12:30:25;;;;;;;43.03;23.35;;;;;;;;;;5094825;28;20024;-67
2022/03/17 12:32:55;;;;;;;49.30;24.83;;;;;;;;;;5076556;28;20031;-67
2022/03/17 12:35:25;;;;;;;54.58;29.60;;;;;;;;;;5076669;28;20052;-66
2022/03/17 12:37:58;;;;;;;98.90;53.20;;;;;;;;;;5094459;28;20464;-66
2022/03/17 12:40:25;;;;;;;91.00;53.55;;;;;;;;;;5094791;28;20032;-67
2022/03/17 12:42:52;;;;;;;59.80;36.65;;;;;;;;;;5076501;28;20020;-66
2022/03/17 12:45:25;;;;;;;54.03;30.63;;;;;;;;;;5094258;28;20423;-66
2022/03/17 12:47:56;;;;;;;42.17;25.38;;;;;;;;;;5094647;28;20035;-66
2022/03/17 12:50:23;;;;;;;61.05;35.97;;;;;;;;;;5094616;28;20364;-66
2022/03/17 12:52:50;;;;;;;51.00;30.45;;;;;;;;;;5076441;28;20116;-66
2022/03/17 12:55:18;;;;;;;55.92;33.33;;;;;;;;;;5094389;28;20016;-67
2022/03/17 12:57:44;;;;;;;53.53;31.23;;;;;;;;;;5094217;28;20059;-66
2022/03/17 13:00:12;;;;;;;55.88;30.85;;;;;;;;;;5094382;28;20028;-66
2022/03/17 13:02:46;;;;;;;52.50;29.08;;;;;;;;;;5094322;28;20103;-66
2022/03/17 13:07:59;;;;;;;50.00;28.48;;;;;;;;;;5093947;28;20122;-65
2022/03/17 13:10:26;;;;;;;58.63;26.95;;;;;;;;;;5094091;28;20027;-65
2022/03/17 13:15:42;;;;;;;58.78;29.73;;;;;;;;;;5094189;28;20076;-66
2022/03/17 13:18:10;;;;;;;54.63;32.25;;;;;;;;;;5093412;28;20035;-66
2022/03/17 13:20:37;;;;;;;57.08;33.13;;;;;;;;;;5093858;28;20375;-66
2022/03/17 13:23:04;;;;;;;52.80;33.05;;;;;;;;;;5093994;28;20020;-66
2022/03/17 13:25:31;;;;;;;56.33;33.13;;;;;;;;;;5075655;28;20119;-66
2022/03/17 13:27:59;;;;;;;58.45;28.98;;;;;;;;;;5093942;28;20541;-66
2022/03/17 13:30:26;;;;;;;47.95;26.55;;;;;;;;;;5093824;28;20475;-66
2022/03/17 13:33:04;;;;;;;42.50;26.23;;;;;;;;;;5075729;28;20024;-67
2022/03/17 13:35:32;;;;;;;47.35;26.60;;;;;;;;;;5093733;28;20032;-66
2022/03/17 13:38:05;;;;;;;48.83;27.55;;;;;;;;;;5093542;28;20101;-67
2022/03/17 13:40:40;;;;;;;48.05;28.38;;;;;;;;;;5093730;28;20032;-66
2022/03/17 13:43:07;;;;;;;45.75;26.17;;;;;;;;;;5093741;28;20020;-66
2022/03/17 13:45:35;;;;;;;50.95;27.40;;;;;;;;;;5093714;28;20044;-66
2022/03/17 13:48:05;;;;;;;43.00;25.10;;;;;;;;;;5093571;28;20426;-66
2022/03/17 13:50:32;;;;;;;44.25;26.63;;;;;;;;;;5093485;28;20369;-66
2022/03/17 13:53:09;;;;;;;81.03;28.10;;;;;;;;;;5075654;28;20392;-66
2022/03/17 13:55:37;;;;;;;48.40;25.35;;;;;;;;;;5093392;28;20460;-66
2022/03/17 13:58:13;;;;;;;44.13;26.92;;;;;;;;;;5075179;28;20388;-66
2022/03/17 14:00:40;;;;;;;55.38;26.73;;;;;;;;;;5075141;28;20016;-66
2022/03/17 14:03:14;;;;;;;43.80;26.23;;;;;;;;;;5093428;28;20027;-66
2022/03/17 14:06:00;;;;;;;50.83;28.70;;;;;;;;;;5093242;28;20359;-66
2022/03/17 14:08:26;;;;;;;47.70;27.15;;;;;;;;;;5092993;28;20028;-66
2022/03/17 14:10:53;;;;;;;47.80;28.08;;;;;;;;;;5074942;28;20107;-67
2022/03/17 14:13:20;;;;;;;55.92;29.08;;;;;;;;;;5092796;28;20349;-66
2022/03/17 14:15:50;;;;;;;49.65;25.95;;;;;;;;;;5074960;28;20144;-66
2022/03/17 14:18:17;;;;;;;55.28;28.42;;;;;;;;;;5074939;28;20032;-68
2022/03/17 14:20:43;;;;;;;56.47;33.17;;;;;;;;;;5093111;28;20032;-68
2022/03/17 14:25:54;;;;;;;62.95;37.22;;;;;;;;;;5092864;28;20503;-66
2022/03/17 14:28:21;;;;;;;64.93;37.40;;;;;;;;;;5093245;28;20028;-66
2022/03/17 14:30:47;;;;;;;70.18;40.00;;;;;;;;;;5097243;28;20028;-67
2022/03/17 14:33:13;;;;;;;108.47;40.80;;;;;;;;;;5097470;28;20024;-66
2022/03/17 14:35:40;;;;;;;69.07;40.60;;;;;;;;;;5096879;28;20026;-66